Terminal Aerodrome Forecast
Issued by NWS

Home | Current Version | Previous Version | Text Only | Print | Product List | Glossary On
Versions: 1 2 3 4 5 6 7 8 9 10 11 12
000
FTUS43 KICT 271124
TAFCNU
TAF
KCNU 271124Z 2712/2812 31012KT P6SM SCT020 OVC060
      TEMPO 2712/2716 6SM -RASN BKN018 OVC040
     FM272000 34011KT P6SM SCT070 BKN100
     FM280000 34005KT P6SM SKC=

USA.gov is the U.S. government's official web portal to all federal, state and local government web resources and services.